Portada
METAR-TAF:

METAR-TAF

Aeropuertos :

Aeropuerto de Trieste - Friuli Venezia Giulia

Trieste / Ronchi dei Legionari, Italia

latitud: 45-49N, longitud: 013-29E, altitud: 12 m

Observación

El informe se hizo hace 16 minutos, a las 12:20 UTC
Viento 7 kt del sur-sureste
Temperatura 13°C
Humedad 72%
Presión 1016 hPa
Visibilidad: 9000 m

METAR: LIPQ 051220Z AUTO 16007KT 9000 BKN022/// BKN042/// 13/08 Q1016

Hora: 13:36 (12:36 UTC)

Pronóstico

El informe se hizo hace 1 hora y 36 minutos, a las 11:00 UTC
Pronóstico válido del 05 a las 12 UTC al 06 a las 12 UTC
Viento 4 kt con dirección variable
Visibilidad 10 km o más
Cielo nuboso a una altura de 5000 ft
Evolucionando progresivamente
del 05 a las 19 UTC al 05 a las 21 UTC
Viento 15 kt del este

TAF: LIPQ 051100Z 0512/0612 VRB04KT 9999 BKN050 BECMG 0519/0521 08015KT

Observaciones y pronósticos meteorológicos de más de 4000 aeropuertos (mensajes METAR y TAF).

Los puntos amarillos y rojos representan las estaciones disponibles.

Ponga el ratón en el punto deseado para ver el nombre de la estación.

Haga clic para ver las observaciones y los pronósticos meteorológicos.

Para cambiar el mapa : haga clic en los botones verdes con una cruz de color negro para hacer un zoom, en el botón verde con un guión para alejar o en las flechas verdes para mapas adyacentes.


METAR-TAF: